sensor_id;sensor_type;location;lat;lon;timestamp;P1;durP1;ratioP1;P2;durP2;ratioP2
17997;SDS011;9124;48.144;17.098;2022-11-25T00:00:44;6.00;;;3.30;;
17997;SDS011;9124;48.144;17.098;2022-11-25T00:04:20;3.45;;;3.15;;
17997;SDS011;9124;48.144;17.098;2022-11-25T00:07:56;4.43;;;3.53;;
17997;SDS011;9124;48.144;17.098;2022-11-25T00:11:33;3.95;;;3.55;;
17997;SDS011;9124;48.144;17.098;2022-11-25T00:15:11;4.20;;;3.80;;
17997;SDS011;9124;48.144;17.098;2022-11-25T00:18:48;4.40;;;3.70;;
17997;SDS011;9124;48.144;17.098;2022-11-25T00:22:26;3.58;;;3.28;;
17997;SDS011;9124;48.144;17.098;2022-11-25T00:26:13;3.70;;;3.33;;
17997;SDS011;9124;48.144;17.098;2022-11-25T00:29:50;5.63;;;3.53;;
17997;SDS011;9124;48.144;17.098;2022-11-25T00:33:27;8.60;;;3.95;;
17997;SDS011;9124;48.144;17.098;2022-11-25T00:37:03;8.48;;;3.58;;
17997;SDS011;9124;48.144;17.098;2022-11-25T00:40:40;3.85;;;3.47;;
17997;SDS011;9124;48.144;17.098;2022-11-25T00:44:19;5.88;;;3.67;;
17997;SDS011;9124;48.144;17.098;2022-11-25T00:48:11;5.60;;;3.50;;
17997;SDS011;9124;48.144;17.098;2022-11-25T00:51:48;4.43;;;3.92;;
17997;SDS011;9124;48.144;17.098;2022-11-25T00:55:24;6.57;;;3.53;;
17997;SDS011;9124;48.144;17.098;2022-11-25T00:59:21;3.95;;;3.55;;
17997;SDS011;9124;48.144;17.098;2022-11-25T01:02:57;3.55;;;3.25;;
17997;SDS011;9124;48.144;17.098;2022-11-25T01:06:34;4.78;;;4.38;;
17997;SDS011;9124;48.144;17.098;2022-11-25T01:10:11;7.50;;;3.88;;
17997;SDS011;9124;48.144;17.098;2022-11-25T01:13:48;4.07;;;3.78;;
17997;SDS011;9124;48.144;17.098;2022-11-25T01:17:25;8.02;;;4.40;;
17997;SDS011;9124;48.144;17.098;2022-11-25T01:21:13;7.55;;;4.13;;
17997;SDS011;9124;48.144;17.098;2022-11-25T01:24:58;7.95;;;4.03;;
17997;SDS011;9124;48.144;17.098;2022-11-25T01:28:38;4.57;;;4.10;;
17997;SDS011;9124;48.144;17.098;2022-11-25T01:32:15;6.15;;;3.97;;
17997;SDS011;9124;48.144;17.098;2022-11-25T01:35:52;8.15;;;4.32;;
17997;SDS011;9124;48.144;17.098;2022-11-25T01:39:28;6.38;;;4.78;;
17997;SDS011;9124;48.144;17.098;2022-11-25T01:43:05;4.15;;;3.78;;
17997;SDS011;9124;48.144;17.098;2022-11-25T01:50:53;4.63;;;4.25;;
17997;SDS011;9124;48.144;17.098;2022-11-25T01:54:31;5.10;;;4.28;;
17997;SDS011;9124;48.144;17.098;2022-11-25T01:58:31;7.40;;;4.43;;
17997;SDS011;9124;48.144;17.098;2022-11-25T02:02:10;4.45;;;4.05;;
17997;SDS011;9124;48.144;17.098;2022-11-25T02:05:51;4.90;;;4.45;;
17997;SDS011;9124;48.144;17.098;2022-11-25T02:09:40;7.05;;;4.55;;
17997;SDS011;9124;48.144;17.098;2022-11-25T02:13:19;5.85;;;4.30;;
17997;SDS011;9124;48.144;17.098;2022-11-25T02:16:59;5.00;;;3.97;;
17997;SDS011;9124;48.144;17.098;2022-11-25T02:20:37;5.00;;;4.60;;
17997;SDS011;9124;48.144;17.098;2022-11-25T02:31:59;7.32;;;3.97;;
17997;SDS011;9124;48.144;17.098;2022-11-25T02:35:37;4.43;;;3.88;;
17997;SDS011;9124;48.144;17.098;2022-11-25T02:39:18;4.13;;;3.78;;
17997;SDS011;9124;48.144;17.098;2022-11-25T02:42:57;6.10;;;3.55;;
17997;SDS011;9124;48.144;17.098;2022-11-25T02:46:35;2.90;;;2.70;;
17997;SDS011;9124;48.144;17.098;2022-11-25T02:50:11;3.92;;;3.38;;
17997;SDS011;9124;48.144;17.098;2022-11-25T02:53:48;5.72;;;4.25;;
17997;SDS011;9124;48.144;17.098;2022-11-25T02:57:27;3.85;;;3.20;;
17997;SDS011;9124;48.144;17.098;2022-11-25T03:01:03;4.95;;;3.65;;
17997;SDS011;9124;48.144;17.098;2022-11-25T03:04:40;4.53;;;3.70;;
17997;SDS011;9124;48.144;17.098;2022-11-25T03:08:16;3.60;;;3.30;;
17997;SDS011;9124;48.144;17.098;2022-11-25T03:11:53;4.05;;;3.25;;
17997;SDS011;9124;48.144;17.098;2022-11-25T03:15:48;4.20;;;3.83;;
17997;SDS011;9124;48.144;17.098;2022-11-25T03:19:25;6.18;;;3.75;;
17997;SDS011;9124;48.144;17.098;2022-11-25T03:23:01;7.00;;;3.88;;
17997;SDS011;9124;48.144;17.098;2022-11-25T03:26:39;5.60;;;3.72;;
17997;SDS011;9124;48.144;17.098;2022-11-25T03:30:21;4.18;;;3.55;;
17997;SDS011;9124;48.144;17.098;2022-11-25T03:34:02;3.65;;;3.42;;
17997;SDS011;9124;48.144;17.098;2022-11-25T03:37:40;5.65;;;3.72;;
17997;SDS011;9124;48.144;17.098;2022-11-25T03:41:17;6.22;;;2.80;;
17997;SDS011;9124;48.144;17.098;2022-11-25T03:44:53;7.25;;;2.63;;
17997;SDS011;9124;48.144;17.098;2022-11-25T03:48:30;3.60;;;2.83;;
17997;SDS011;9124;48.144;17.098;2022-11-25T03:52:07;2.67;;;2.42;;
17997;SDS011;9124;48.144;17.098;2022-11-25T03:55:46;3.20;;;2.92;;
17997;SDS011;9124;48.144;17.098;2022-11-25T03:59:28;3.20;;;2.90;;
17997;SDS011;9124;48.144;17.098;2022-11-25T04:03:04;3.33;;;2.97;;
17997;SDS011;9124;48.144;17.098;2022-11-25T04:06:42;3.03;;;2.83;;
17997;SDS011;9124;48.144;17.098;2022-11-25T04:10:18;6.78;;;3.22;;
17997;SDS011;9124;48.144;17.098;2022-11-25T04:13:55;2.65;;;2.45;;
17997;SDS011;9124;48.144;17.098;2022-11-25T04:17:31;3.17;;;2.88;;
17997;SDS011;9124;48.144;17.098;2022-11-25T04:21:09;4.65;;;2.47;;
17997;SDS011;9124;48.144;17.098;2022-11-25T04:24:45;3.15;;;2.92;;
17997;SDS011;9124;48.144;17.098;2022-11-25T04:28:27;4.13;;;3.75;;
17997;SDS011;9124;48.144;17.098;2022-11-25T04:32:03;5.10;;;3.05;;
17997;SDS011;9124;48.144;17.098;2022-11-25T04:35:41;4.03;;;3.70;;
17997;SDS011;9124;48.144;17.098;2022-11-25T04:39:19;4.32;;;3.63;;
17997;SDS011;9124;48.144;17.098;2022-11-25T04:43:00;5.57;;;4.43;;
17997;SDS011;9124;48.144;17.098;2022-11-25T04:46:38;4.97;;;4.03;;
17997;SDS011;9124;48.144;17.098;2022-11-25T04:50:18;5.22;;;4.72;;
17997;SDS011;9124;48.144;17.098;2022-11-25T04:54:11;4.75;;;4.35;;
17997;SDS011;9124;48.144;17.098;2022-11-25T04:57:48;5.00;;;4.43;;
17997;SDS011;9124;48.144;17.098;2022-11-25T05:01:25;5.20;;;4.70;;
17997;SDS011;9124;48.144;17.098;2022-11-25T05:05:09;5.65;;;5.15;;
17997;SDS011;9124;48.144;17.098;2022-11-25T05:08:49;5.82;;;4.35;;
17997;SDS011;9124;48.144;17.098;2022-11-25T05:12:28;4.88;;;4.43;;
17997;SDS011;9124;48.144;17.098;2022-11-25T05:16:05;5.80;;;4.75;;
17997;SDS011;9124;48.144;17.098;2022-11-25T05:19:42;4.97;;;4.68;;
17997;SDS011;9124;48.144;17.098;2022-11-25T05:23:23;4.72;;;4.30;;
17997;SDS011;9124;48.144;17.098;2022-11-25T05:26:59;5.40;;;4.63;;
17997;SDS011;9124;48.144;17.098;2022-11-25T05:30:36;4.63;;;4.22;;
17997;SDS011;9124;48.144;17.098;2022-11-25T05:34:14;4.45;;;4.15;;
17997;SDS011;9124;48.144;17.098;2022-11-25T05:37:53;4.95;;;4.20;;
17997;SDS011;9124;48.144;17.098;2022-11-25T05:41:29;5.10;;;3.45;;
17997;SDS011;9124;48.144;17.098;2022-11-25T05:45:07;3.50;;;3.30;;
17997;SDS011;9124;48.144;17.098;2022-11-25T05:48:45;4.07;;;3.20;;
17997;SDS011;9124;48.144;17.098;2022-11-25T05:52:22;4.25;;;3.30;;
17997;SDS011;9124;48.144;17.098;2022-11-25T05:56:05;4.43;;;3.13;;
17997;SDS011;9124;48.144;17.098;2022-11-25T06:00:00;4.18;;;3.75;;
17997;SDS011;9124;48.144;17.098;2022-11-25T06:03:50;4.05;;;3.80;;
17997;SDS011;9124;48.144;17.098;2022-11-25T06:07:27;4.35;;;3.92;;
17997;SDS011;9124;48.144;17.098;2022-11-25T06:11:08;4.70;;;4.40;;
17997;SDS011;9124;48.144;17.098;2022-11-25T06:14:50;4.10;;;3.70;;
17997;SDS011;9124;48.144;17.098;2022-11-25T06:18:26;4.00;;;3.67;;
17997;SDS011;9124;48.144;17.098;2022-11-25T06:22:03;4.88;;;4.35;;
17997;SDS011;9124;48.144;17.098;2022-11-25T06:25:39;4.95;;;3.70;;
17997;SDS011;9124;48.144;17.098;2022-11-25T06:29:16;4.78;;;4.38;;
17997;SDS011;9124;48.144;17.098;2022-11-25T06:32:57;5.95;;;4.68;;
17997;SDS011;9124;48.144;17.098;2022-11-25T06:36:33;5.38;;;4.82;;
17997;SDS011;9124;48.144;17.098;2022-11-25T06:40:10;5.03;;;4.53;;
17997;SDS011;9124;48.144;17.098;2022-11-25T06:43:47;5.85;;;3.97;;
17997;SDS011;9124;48.144;17.098;2022-11-25T06:47:23;4.32;;;3.58;;
17997;SDS011;9124;48.144;17.098;2022-11-25T06:51:01;4.97;;;4.30;;
17997;SDS011;9124;48.144;17.098;2022-11-25T06:54:39;7.40;;;4.60;;
17997;SDS011;9124;48.144;17.098;2022-11-25T06:58:16;5.97;;;4.40;;
17997;SDS011;9124;48.144;17.098;2022-11-25T07:01:52;11.73;;;4.93;;
17997;SDS011;9124;48.144;17.098;2022-11-25T07:05:29;7.18;;;4.90;;
17997;SDS011;9124;48.144;17.098;2022-11-25T07:09:05;7.57;;;4.90;;
17997;SDS011;9124;48.144;17.098;2022-11-25T07:12:42;6.47;;;4.95;;
17997;SDS011;9124;48.144;17.098;2022-11-25T07:16:18;5.93;;;5.13;;
17997;SDS011;9124;48.144;17.098;2022-11-25T07:19:55;8.60;;;5.18;;
17997;SDS011;9124;48.144;17.098;2022-11-25T07:23:32;6.05;;;4.22;;
17997;SDS011;9124;48.144;17.098;2022-11-25T07:27:09;4.72;;;4.43;;
17997;SDS011;9124;48.144;17.098;2022-11-25T07:30:46;4.88;;;4.47;;
17997;SDS011;9124;48.144;17.098;2022-11-25T07:34:22;5.47;;;5.07;;
17997;SDS011;9124;48.144;17.098;2022-11-25T07:37:59;6.40;;;4.97;;
17997;SDS011;9124;48.144;17.098;2022-11-25T07:41:35;7.40;;;4.93;;
17997;SDS011;9124;48.144;17.098;2022-11-25T07:45:12;5.70;;;5.20;;
17997;SDS011;9124;48.144;17.098;2022-11-25T07:48:55;5.45;;;4.95;;
17997;SDS011;9124;48.144;17.098;2022-11-25T07:52:36;6.40;;;4.53;;
17997;SDS011;9124;48.144;17.098;2022-11-25T07:56:15;6.15;;;5.40;;
17997;SDS011;9124;48.144;17.098;2022-11-25T07:59:52;5.40;;;5.00;;
17997;SDS011;9124;48.144;17.098;2022-11-25T08:03:30;5.90;;;5.30;;
17997;SDS011;9124;48.144;17.098;2022-11-25T08:07:09;5.03;;;4.60;;
17997;SDS011;9124;48.144;17.098;2022-11-25T08:10:46;3.67;;;3.25;;
17997;SDS011;9124;48.144;17.098;2022-11-25T08:14:22;5.20;;;3.00;;
17997;SDS011;9124;48.144;17.098;2022-11-25T08:18:00;6.18;;;2.80;;
17997;SDS011;9124;48.144;17.098;2022-11-25T08:21:37;8.48;;;3.30;;
17997;SDS011;9124;48.144;17.098;2022-11-25T08:25:13;3.92;;;2.40;;
17997;SDS011;9124;48.144;17.098;2022-11-25T08:28:50;8.75;;;3.20;;
17997;SDS011;9124;48.144;17.098;2022-11-25T08:32:28;6.72;;;2.92;;
17997;SDS011;9124;48.144;17.098;2022-11-25T08:36:05;2.40;;;2.20;;
17997;SDS011;9124;48.144;17.098;2022-11-25T08:39:41;2.13;;;1.92;;
17997;SDS011;9124;48.144;17.098;2022-11-25T08:43:18;4.75;;;1.90;;
17997;SDS011;9124;48.144;17.098;2022-11-25T08:46:56;3.13;;;2.40;;
17997;SDS011;9124;48.144;17.098;2022-11-25T08:50:32;2.67;;;2.47;;
17997;SDS011;9124;48.144;17.098;2022-11-25T08:54:09;2.33;;;1.98;;
17997;SDS011;9124;48.144;17.098;2022-11-25T08:57:46;3.15;;;2.22;;
17997;SDS011;9124;48.144;17.098;2022-11-25T09:01:25;1.77;;;1.67;;
17997;SDS011;9124;48.144;17.098;2022-11-25T09:05:02;1.75;;;1.65;;
17997;SDS011;9124;48.144;17.098;2022-11-25T09:08:39;2.75;;;1.77;;
17997;SDS011;9124;48.144;17.098;2022-11-25T09:12:16;1.95;;;1.70;;
17997;SDS011;9124;48.144;17.098;2022-11-25T09:15:53;1.67;;;1.58;;
17997;SDS011;9124;48.144;17.098;2022-11-25T09:19:30;10.63;;;4.10;;
17997;SDS011;9124;48.144;17.098;2022-11-25T09:23:07;2.20;;;2.00;;
17997;SDS011;9124;48.144;17.098;2022-11-25T09:26:44;2.00;;;1.90;;
17997;SDS011;9124;48.144;17.098;2022-11-25T09:30:21;2.08;;;1.88;;
17997;SDS011;9124;48.144;17.098;2022-11-25T09:33:59;2.22;;;1.98;;
17997;SDS011;9124;48.144;17.098;2022-11-25T09:37:35;3.33;;;1.92;;
17997;SDS011;9124;48.144;17.098;2022-11-25T10:01:18;2.35;;;1.90;;
17997;SDS011;9124;48.144;17.098;2022-11-25T10:05:04;4.00;;;2.10;;
17997;SDS011;9124;48.144;17.098;2022-11-25T10:08:50;5.85;;;1.88;;
17997;SDS011;9124;48.144;17.098;2022-11-25T10:12:31;2.45;;;2.25;;
17997;SDS011;9124;48.144;17.098;2022-11-25T10:16:28;4.72;;;1.85;;
17997;SDS011;9124;48.144;17.098;2022-11-25T10:23:51;3.80;;;2.35;;
17997;SDS011;9124;48.144;17.098;2022-11-25T10:31:15;2.45;;;2.25;;
17997;SDS011;9124;48.144;17.098;2022-11-25T10:35:01;2.70;;;2.50;;
17997;SDS011;9124;48.144;17.098;2022-11-25T10:42:37;2.72;;;1.60;;
17997;SDS011;9124;48.144;17.098;2022-11-25T10:50:40;2.10;;;1.90;;
17997;SDS011;9124;48.144;17.098;2022-11-25T10:54:29;3.03;;;1.70;;
17997;SDS011;9124;48.144;17.098;2022-11-25T11:02:27;5.57;;;1.98;;
17997;SDS011;9124;48.144;17.098;2022-11-25T11:06:05;1.73;;;1.58;;
17997;SDS011;9124;48.144;17.098;2022-11-25T11:09:42;1.40;;;1.30;;
17997;SDS011;9124;48.144;17.098;2022-11-25T11:13:20;1.10;;;1.08;;
17997;SDS011;9124;48.144;17.098;2022-11-25T11:17:03;1.77;;;1.60;;
17997;SDS011;9124;48.144;17.098;2022-11-25T11:20:44;2.38;;;1.35;;
17997;SDS011;9124;48.144;17.098;2022-11-25T11:24:28;2.88;;;1.70;;
17997;SDS011;9124;48.144;17.098;2022-11-25T11:28:55;3.85;;;1.50;;
17997;SDS011;9124;48.144;17.098;2022-11-25T11:32:23;2.38;;;1.30;;
17997;SDS011;9124;48.144;17.098;2022-11-25T11:44:00;2.67;;;1.45;;
17997;SDS011;9124;48.144;17.098;2022-11-25T11:55:22;1.25;;;1.02;;
17997;SDS011;9124;48.144;17.098;2022-11-25T12:03:15;0.90;;;0.90;;
17997;SDS011;9124;48.144;17.098;2022-11-25T12:07:01;1.65;;;0.80;;
17997;SDS011;9124;48.144;17.098;2022-11-25T12:10:53;1.35;;;0.88;;
17997;SDS011;9124;48.144;17.098;2022-11-25T12:14:50;1.65;;;0.90;;
17997;SDS011;9124;48.144;17.098;2022-11-25T12:18:48;0.75;;;0.75;;
17997;SDS011;9124;48.144;17.098;2022-11-25T12:22:37;1.42;;;0.80;;
17997;SDS011;9124;48.144;17.098;2022-11-25T12:34:40;3.08;;;1.23;;
17997;SDS011;9124;48.144;17.098;2022-11-25T12:42:03;1.63;;;1.17;;
17997;SDS011;9124;48.144;17.098;2022-11-25T12:49:54;3.88;;;1.23;;
17997;SDS011;9124;48.144;17.098;2022-11-25T13:05:29;1.75;;;1.65;;
17997;SDS011;9124;48.144;17.098;2022-11-25T13:13:35;5.50;;;1.40;;
17997;SDS011;9124;48.144;17.098;2022-11-25T13:17:38;2.90;;;1.88;;
17997;SDS011;9124;48.144;17.098;2022-11-25T13:21:17;1.75;;;1.40;;
17997;SDS011;9124;48.144;17.098;2022-11-25T13:24:56;3.17;;;1.40;;
17997;SDS011;9124;48.144;17.098;2022-11-25T13:28:33;3.00;;;1.48;;
17997;SDS011;9124;48.144;17.098;2022-11-25T13:32:28;2.25;;;1.75;;
17997;SDS011;9124;48.144;17.098;2022-11-25T13:36:14;2.92;;;1.10;;
17997;SDS011;9124;48.144;17.098;2022-11-25T13:40:18;1.27;;;0.77;;
17997;SDS011;9124;48.144;17.098;2022-11-25T13:44:03;2.35;;;1.23;;
17997;SDS011;9124;48.144;17.098;2022-11-25T13:47:47;1.20;;;1.20;;
17997;SDS011;9124;48.144;17.098;2022-11-25T13:51:24;0.90;;;0.90;;
17997;SDS011;9124;48.144;17.098;2022-11-25T13:55:05;5.38;;;1.45;;
17997;SDS011;9124;48.144;17.098;2022-11-25T14:02:47;1.88;;;1.08;;
17997;SDS011;9124;48.144;17.098;2022-11-25T14:10:20;1.58;;;1.00;;
17997;SDS011;9124;48.144;17.098;2022-11-25T14:14:25;1.48;;;0.90;;
17997;SDS011;9124;48.144;17.098;2022-11-25T14:25:55;3.33;;;1.08;;
17997;SDS011;9124;48.144;17.098;2022-11-25T14:29:45;3.72;;;0.90;;
17997;SDS011;9124;48.144;17.098;2022-11-25T14:33:35;3.03;;;1.30;;
17997;SDS011;9124;48.144;17.098;2022-11-25T14:37:37;4.47;;;0.98;;
17997;SDS011;9124;48.144;17.098;2022-11-25T14:41:16;2.90;;;1.00;;
17997;SDS011;9124;48.144;17.098;2022-11-25T14:45:27;2.88;;;1.10;;
17997;SDS011;9124;48.144;17.098;2022-11-25T14:49:05;2.53;;;1.05;;
17997;SDS011;9124;48.144;17.098;2022-11-25T14:52:42;1.98;;;1.17;;
17997;SDS011;9124;48.144;17.098;2022-11-25T14:56:26;2.28;;;1.15;;
17997;SDS011;9124;48.144;17.098;2022-11-25T15:00:11;5.43;;;1.50;;
17997;SDS011;9124;48.144;17.098;2022-11-25T15:03:50;4.45;;;1.70;;
17997;SDS011;9124;48.144;17.098;2022-11-25T15:07:58;6.75;;;3.10;;
17997;SDS011;9124;48.144;17.098;2022-11-25T15:11:36;5.35;;;2.65;;
17997;SDS011;9124;48.144;17.098;2022-11-25T15:15:13;12.43;;;5.00;;
17997;SDS011;9124;48.144;17.098;2022-11-25T15:18:54;10.55;;;5.22;;
17997;SDS011;9124;48.144;17.098;2022-11-25T15:22:33;10.07;;;5.78;;
17997;SDS011;9124;48.144;17.098;2022-11-25T15:26:18;6.97;;;5.07;;
17997;SDS011;9124;48.144;17.098;2022-11-25T15:29:57;7.38;;;6.57;;
17997;SDS011;9124;48.144;17.098;2022-11-25T15:33:33;12.55;;;7.45;;
17997;SDS011;9124;48.144;17.098;2022-11-25T15:37:12;10.70;;;9.15;;
17997;SDS011;9124;48.144;17.098;2022-11-25T15:40:54;18.88;;;10.18;;
17997;SDS011;9124;48.144;17.098;2022-11-25T15:44:36;11.98;;;9.50;;
17997;SDS011;9124;48.144;17.098;2022-11-25T15:48:21;19.38;;;10.90;;
17997;SDS011;9124;48.144;17.098;2022-11-25T15:52:04;18.80;;;11.40;;
17997;SDS011;9124;48.144;17.098;2022-11-25T15:55:47;19.88;;;11.30;;
17997;SDS011;9124;48.144;17.098;2022-11-25T16:03:22;22.90;;;12.02;;
17997;SDS011;9124;48.144;17.098;2022-11-25T16:06:58;28.65;;;12.57;;
17997;SDS011;9124;48.144;17.098;2022-11-25T16:17:58;21.48;;;12.65;;
17997;SDS011;9124;48.144;17.098;2022-11-25T16:25:13;19.67;;;11.98;;
17997;SDS011;9124;48.144;17.098;2022-11-25T16:28:53;21.58;;;12.45;;
17997;SDS011;9124;48.144;17.098;2022-11-25T16:32:32;21.77;;;12.10;;
17997;SDS011;9124;48.144;17.098;2022-11-25T16:36:10;23.70;;;12.50;;
17997;SDS011;9124;48.144;17.098;2022-11-25T16:39:46;23.20;;;12.35;;
17997;SDS011;9124;48.144;17.098;2022-11-25T16:43:23;19.85;;;12.00;;
17997;SDS011;9124;48.144;17.098;2022-11-25T16:47:02;19.02;;;13.18;;
17997;SDS011;9124;48.144;17.098;2022-11-25T16:50:38;22.15;;;13.27;;
17997;SDS011;9124;48.144;17.098;2022-11-25T16:54:18;27.30;;;13.85;;
17997;SDS011;9124;48.144;17.098;2022-11-25T16:57:56;27.50;;;13.82;;
17997;SDS011;9124;48.144;17.098;2022-11-25T17:01:33;21.83;;;13.63;;
17997;SDS011;9124;48.144;17.098;2022-11-25T17:05:17;26.83;;;14.45;;
17997;SDS011;9124;48.144;17.098;2022-11-25T17:08:56;22.20;;;15.70;;
17997;SDS011;9124;48.144;17.098;2022-11-25T17:12:32;26.60;;;14.77;;
17997;SDS011;9124;48.144;17.098;2022-11-25T17:16:13;27.67;;;16.70;;
17997;SDS011;9124;48.144;17.098;2022-11-25T17:19:53;26.33;;;17.02;;
17997;SDS011;9124;48.144;17.098;2022-11-25T17:23:29;30.35;;;15.90;;
17997;SDS011;9124;48.144;17.098;2022-11-25T17:27:06;29.52;;;17.13;;
17997;SDS011;9124;48.144;17.098;2022-11-25T17:30:43;28.25;;;16.33;;
17997;SDS011;9124;48.144;17.098;2022-11-25T17:34:21;31.40;;;16.27;;
17997;SDS011;9124;48.144;17.098;2022-11-25T17:37:58;30.70;;;17.25;;
17997;SDS011;9124;48.144;17.098;2022-11-25T17:41:35;31.15;;;17.02;;
17997;SDS011;9124;48.144;17.098;2022-11-25T17:45:19;31.55;;;16.17;;
17997;SDS011;9124;48.144;17.098;2022-11-25T17:48:56;34.63;;;16.73;;
17997;SDS011;9124;48.144;17.098;2022-11-25T17:52:32;31.17;;;17.40;;
17997;SDS011;9124;48.144;17.098;2022-11-25T17:56:15;31.17;;;16.13;;
17997;SDS011;9124;48.144;17.098;2022-11-25T17:59:53;31.45;;;17.02;;
17997;SDS011;9124;48.144;17.098;2022-11-25T18:03:29;30.55;;;16.92;;
17997;SDS011;9124;48.144;17.098;2022-11-25T18:07:06;29.13;;;15.75;;
17997;SDS011;9124;48.144;17.098;2022-11-25T18:10:44;26.38;;;15.35;;
17997;SDS011;9124;48.144;17.098;2022-11-25T18:14:31;27.65;;;14.80;;
17997;SDS011;9124;48.144;17.098;2022-11-25T18:18:18;27.90;;;15.02;;
17997;SDS011;9124;48.144;17.098;2022-11-25T18:22:00;30.80;;;16.17;;
17997;SDS011;9124;48.144;17.098;2022-11-25T18:25:48;37.17;;;18.55;;
17997;SDS011;9124;48.144;17.098;2022-11-25T18:29:25;31.83;;;17.77;;
17997;SDS011;9124;48.144;17.098;2022-11-25T18:33:02;27.17;;;17.10;;
17997;SDS011;9124;48.144;17.098;2022-11-25T18:36:41;40.97;;;21.70;;
17997;SDS011;9124;48.144;17.098;2022-11-25T18:40:18;41.30;;;22.38;;
17997;SDS011;9124;48.144;17.098;2022-11-25T18:43:55;39.17;;;20.10;;
17997;SDS011;9124;48.144;17.098;2022-11-25T18:47:35;36.25;;;19.50;;
17997;SDS011;9124;48.144;17.098;2022-11-25T18:51:11;38.63;;;19.70;;
17997;SDS011;9124;48.144;17.098;2022-11-25T18:54:49;44.08;;;20.42;;
17997;SDS011;9124;48.144;17.098;2022-11-25T18:58:25;38.17;;;19.75;;
17997;SDS011;9124;48.144;17.098;2022-11-25T19:02:07;38.00;;;19.90;;
17997;SDS011;9124;48.144;17.098;2022-11-25T19:05:50;33.88;;;19.40;;
17997;SDS011;9124;48.144;17.098;2022-11-25T19:09:34;39.58;;;20.08;;
17997;SDS011;9124;48.144;17.098;2022-11-25T19:13:13;35.45;;;18.33;;
17997;SDS011;9124;48.144;17.098;2022-11-25T19:16:53;40.83;;;18.50;;
17997;SDS011;9124;48.144;17.098;2022-11-25T19:20:31;39.67;;;19.95;;
17997;SDS011;9124;48.144;17.098;2022-11-25T19:24:16;33.38;;;17.23;;
17997;SDS011;9124;48.144;17.098;2022-11-25T19:27:56;36.53;;;18.85;;
17997;SDS011;9124;48.144;17.098;2022-11-25T19:31:34;40.78;;;18.25;;
17997;SDS011;9124;48.144;17.098;2022-11-25T19:35:11;28.63;;;16.33;;
17997;SDS011;9124;48.144;17.098;2022-11-25T19:38:52;37.40;;;17.85;;
17997;SDS011;9124;48.144;17.098;2022-11-25T19:42:29;33.63;;;18.17;;
17997;SDS011;9124;48.144;17.098;2022-11-25T19:46:09;34.92;;;17.25;;
17997;SDS011;9124;48.144;17.098;2022-11-25T19:50:01;27.58;;;16.73;;
17997;SDS011;9124;48.144;17.098;2022-11-25T19:53:39;30.90;;;17.33;;
17997;SDS011;9124;48.144;17.098;2022-11-25T19:57:16;28.27;;;16.30;;
17997;SDS011;9124;48.144;17.098;2022-11-25T20:00:55;33.28;;;16.40;;
17997;SDS011;9124;48.144;17.098;2022-11-25T20:04:35;34.78;;;18.67;;
17997;SDS011;9124;48.144;17.098;2022-11-25T20:08:15;28.42;;;16.50;;
17997;SDS011;9124;48.144;17.098;2022-11-25T20:11:58;32.83;;;16.50;;
17997;SDS011;9124;48.144;17.098;2022-11-25T20:15:39;29.85;;;17.67;;
17997;SDS011;9124;48.144;17.098;2022-11-25T20:19:17;29.35;;;17.13;;
17997;SDS011;9124;48.144;17.098;2022-11-25T20:22:54;28.05;;;15.82;;
17997;SDS011;9124;48.144;17.098;2022-11-25T20:26:41;33.20;;;16.45;;
17997;SDS011;9124;48.144;17.098;2022-11-25T20:30:26;31.00;;;16.88;;
17997;SDS011;9124;48.144;17.098;2022-11-25T20:34:03;34.38;;;17.25;;
17997;SDS011;9124;48.144;17.098;2022-11-25T20:37:40;32.70;;;17.55;;
17997;SDS011;9124;48.144;17.098;2022-11-25T20:41:28;36.78;;;17.42;;
17997;SDS011;9124;48.144;17.098;2022-11-25T20:45:12;31.65;;;17.33;;
17997;SDS011;9124;48.144;17.098;2022-11-25T20:48:52;31.02;;;16.10;;
17997;SDS011;9124;48.144;17.098;2022-11-25T20:52:31;27.15;;;15.98;;
17997;SDS011;9124;48.144;17.098;2022-11-25T20:56:10;29.48;;;16.08;;
17997;SDS011;9124;48.144;17.098;2022-11-25T20:59:50;30.38;;;16.35;;
17997;SDS011;9124;48.144;17.098;2022-11-25T21:03:27;33.60;;;16.13;;
17997;SDS011;9124;48.144;17.098;2022-11-25T21:07:03;28.60;;;16.13;;
17997;SDS011;9124;48.144;17.098;2022-11-25T21:10:40;29.40;;;16.70;;
17997;SDS011;9124;48.144;17.098;2022-11-25T21:14:18;34.65;;;17.08;;
17997;SDS011;9124;48.144;17.098;2022-11-25T21:17:54;26.48;;;15.15;;
17997;SDS011;9124;48.144;17.098;2022-11-25T21:21:33;30.20;;;16.00;;
17997;SDS011;9124;48.144;17.098;2022-11-25T21:25:12;29.35;;;17.00;;
17997;SDS011;9124;48.144;17.098;2022-11-25T21:28:52;25.60;;;16.05;;
17997;SDS011;9124;48.144;17.098;2022-11-25T21:32:29;28.05;;;16.38;;
17997;SDS011;9124;48.144;17.098;2022-11-25T21:36:13;35.22;;;17.98;;
17997;SDS011;9124;48.144;17.098;2022-11-25T21:39:54;33.33;;;17.50;;
17997;SDS011;9124;48.144;17.098;2022-11-25T21:43:32;36.78;;;17.63;;
17997;SDS011;9124;48.144;17.098;2022-11-25T21:47:15;33.42;;;17.33;;
17997;SDS011;9124;48.144;17.098;2022-11-25T21:50:53;39.97;;;17.83;;
17997;SDS011;9124;48.144;17.098;2022-11-25T21:54:29;33.03;;;17.20;;
17997;SDS011;9124;48.144;17.098;2022-11-25T21:58:12;30.13;;;16.65;;
17997;SDS011;9124;48.144;17.098;2022-11-25T22:01:52;32.22;;;17.92;;
17997;SDS011;9124;48.144;17.098;2022-11-25T22:05:30;32.45;;;16.75;;
17997;SDS011;9124;48.144;17.098;2022-11-25T22:09:06;29.42;;;16.92;;
17997;SDS011;9124;48.144;17.098;2022-11-25T22:12:43;31.80;;;16.90;;
17997;SDS011;9124;48.144;17.098;2022-11-25T22:16:23;30.88;;;17.75;;
17997;SDS011;9124;48.144;17.098;2022-11-25T22:20:13;33.28;;;17.98;;
17997;SDS011;9124;48.144;17.098;2022-11-25T22:24:04;34.50;;;17.13;;
17997;SDS011;9124;48.144;17.098;2022-11-25T22:27:53;33.80;;;17.52;;
17997;SDS011;9124;48.144;17.098;2022-11-25T22:31:29;29.13;;;16.73;;
17997;SDS011;9124;48.144;17.098;2022-11-25T22:35:13;38.55;;;17.85;;
17997;SDS011;9124;48.144;17.098;2022-11-25T22:38:55;32.20;;;17.88;;
17997;SDS011;9124;48.144;17.098;2022-11-25T22:42:50;33.38;;;17.23;;
17997;SDS011;9124;48.144;17.098;2022-11-25T22:46:29;31.88;;;18.20;;
17997;SDS011;9124;48.144;17.098;2022-11-25T22:54:07;31.33;;;18.88;;
17997;SDS011;9124;48.144;17.098;2022-11-25T22:57:47;35.00;;;18.88;;
17997;SDS011;9124;48.144;17.098;2022-11-25T23:01:25;32.28;;;17.25;;
17997;SDS011;9124;48.144;17.098;2022-11-25T23:05:01;33.15;;;18.23;;
17997;SDS011;9124;48.144;17.098;2022-11-25T23:08:39;31.75;;;16.23;;
17997;SDS011;9124;48.144;17.098;2022-11-25T23:12:15;35.45;;;18.73;;
17997;SDS011;9124;48.144;17.098;2022-11-25T23:15:53;34.95;;;19.30;;
17997;SDS011;9124;48.144;17.098;2022-11-25T23:19:35;38.00;;;17.67;;
17997;SDS011;9124;48.144;17.098;2022-11-25T23:23:12;34.05;;;18.42;;
17997;SDS011;9124;48.144;17.098;2022-11-25T23:26:53;33.42;;;18.35;;
17997;SDS011;9124;48.144;17.098;2022-11-25T23:30:30;37.72;;;19.73;;
17997;SDS011;9124;48.144;17.098;2022-11-25T23:34:06;40.95;;;19.77;;
17997;SDS011;9124;48.144;17.098;2022-11-25T23:37:47;34.97;;;17.65;;
17997;SDS011;9124;48.144;17.098;2022-11-25T23:41:31;42.05;;;20.73;;
17997;SDS011;9124;48.144;17.098;2022-11-25T23:45:11;39.40;;;18.88;;
17997;SDS011;9124;48.144;17.098;2022-11-25T23:48:59;32.55;;;18.15;;
17997;SDS011;9124;48.144;17.098;2022-11-25T23:52:38;43.08;;;18.38;;
17997;SDS011;9124;48.144;17.098;2022-11-25T23:56:14;35.30;;;18.67;;
17997;SDS011;9124;48.144;17.098;2022-11-25T23:59:51;49.53;;;20.38;;
